Wilmington, OH

11:51 AM EST on January 28, 2015 (GMT -0500)
Little House On The Prairie | Change Station
CLOSE
Current Station
Personal Weather Station
Location: Wilmington, OH
Elevation: 1043 ft
Nearby Weather Stations

Elev 1043 ft 39.45 °N, 83.82 °W | Updated 2 seconds ago

Haze
Haze
28.2 °F
Feels Like 28 °F
N
2.7
Wind Variable Wind from SSW
Gusts 2.7 mph

Today
High -- | Low -- °F
--% Chance of Precip.
Yesterday
High -- | Low -- °F
Precip. -- in
7:46 AM 5:50 PM
Waxing Gibbous, 66% visible
Pressure 30.48 in
Visibility 3.0 miles
Clouds Clear
Windchill 28 °F
Dew Point 15 °F
Humidity 58%
Rainfall 0.00 in
Snow Depth Not available.
UV 2 out of 12
Pollen .10 out of 12
Air Quality Not available.
Flu Activity Not available.
METAR KILN 281554Z AUTO 12004KT 3SM HZ CLR M07/M09 A3036 RMK AO2 SLP320 T10671094

More Conditions Fewer Conditions

Pressure 30.48 in
Visibility 3.0 miles
Clouds Clear
Windchill 28 °F
Dew Point 15 °F
Humidity 58%
Rainfall 0.00 in
Snow Depth Not available.
UV 2 out of 12
Pollen .10 out of 12
Air Quality Not available.
Flu Activity Not available.
METAR KILN 281554Z AUTO 12004KT 3SM HZ CLR M07/M09 A3036 RMK AO2 SLP320 T10671094

More Conditions Fewer Conditions

10-Day Weather Forecast

Almanac

Astronomy

Jan. 28, 2015 Rise Set
Actual Time
Civil Twilight
Nautical Twilight
Astronomical Twilight
Moon
Length of Visible Light
Length of Day
Tomorrow will be .
, % of the Moon is Illuminated

Today's Extremes

State Highs State Lows

Community

WunderPhotos

Upload Photos

1,791,197 photos uploaded!

WunderBlogs® & News

Nearby

Air Quality

  Air Quality AQ Index Pollutant
Not available.

Snow Depth

Station Depth Elevation

Earthquake Activity

City Distance Mag. Time & Date
Minimum magnitude displayed is 2.5.

Coastal Water Temperatures

Place Temperature

Nearby Weather Stations